createdAt,value
2022-09-10T00:01:36.817Z,35.50
2022-09-10T00:04:10.883Z,34.30
2022-09-10T00:06:39.381Z,36.80
2022-09-10T00:09:08.730Z,36.60
2022-09-10T00:11:39.066Z,36.40
2022-09-10T00:14:11.996Z,34.80
2022-09-10T00:16:40.573Z,34.40
2022-09-10T00:19:09.075Z,35.20
2022-09-10T00:21:37.503Z,35.50
2022-09-10T00:24:06.677Z,37.30
2022-09-10T00:26:42.275Z,38.70
2022-09-10T00:29:16.918Z,35.50
2022-09-10T00:31:45.684Z,35.10
2022-09-10T00:34:14.293Z,34.90
2022-09-10T00:36:43.753Z,36.30
2022-09-10T00:39:14.096Z,36.00
2022-09-10T00:41:45.475Z,37.90
2022-09-10T00:44:51.311Z,35.60
2022-09-10T00:47:24.435Z,34.00
2022-09-10T00:49:58.201Z,36.20
2022-09-10T00:52:28.785Z,35.20
2022-09-10T00:54:58.755Z,34.30
2022-09-10T00:57:29.095Z,35.10
2022-09-10T01:00:01.895Z,35.10
2022-09-10T01:02:30.457Z,34.60
2022-09-10T01:05:00.054Z,32.00
2022-09-10T01:07:30.279Z,31.30
2022-09-10T01:10:01.100Z,31.10
2022-09-10T01:12:50.601Z,31.50
2022-09-10T01:15:30.311Z,31.70
2022-09-10T01:18:11.007Z,32.90
2022-09-10T01:21:14.661Z,32.90
2022-09-10T01:24:43.759Z,31.80
2022-09-10T01:27:29.054Z,32.30
2022-09-10T01:30:05.817Z,35.90
2022-09-10T01:32:44.502Z,32.10
2022-09-10T01:35:17.379Z,31.70
2022-09-10T01:37:51.308Z,32.00
2022-09-10T01:40:29.025Z,33.20
2022-09-10T01:43:06.503Z,35.10
2022-09-10T01:45:49.079Z,34.60
2022-09-10T01:48:34.633Z,35.80
2022-09-10T01:51:10.332Z,35.40
2022-09-10T01:53:55.890Z,33.60
2022-09-10T01:56:37.583Z,32.60
2022-09-10T01:59:16.100Z,32.70
2022-09-10T02:01:48.721Z,30.50
2022-09-10T02:04:19.409Z,31.80
2022-09-10T02:06:50.604Z,31.70
2022-09-10T02:09:19.740Z,30.80
2022-09-10T02:11:50.251Z,28.80
2022-09-10T02:14:35.414Z,28.50
2022-09-10T02:17:14.637Z,27.50
2022-09-10T02:19:45.674Z,29.60
2022-09-10T02:22:14.753Z,28.40
2022-09-10T02:24:43.995Z,29.40
2022-09-10T02:27:13.928Z,28.40
2022-09-10T02:29:42.577Z,29.80
2022-09-10T02:32:11.316Z,27.90
2022-09-10T02:34:39.718Z,31.40
2022-09-10T02:37:08.274Z,28.50
2022-09-10T02:39:37.881Z,30.70
2022-09-10T02:42:07.218Z,29.70
2022-09-10T02:44:36.333Z,28.10
2022-09-10T02:47:05.674Z,29.50
2022-09-10T02:49:34.453Z,28.40
2022-09-10T02:52:03.959Z,28.70
2022-09-10T02:54:32.792Z,28.50
2022-09-10T02:57:01.179Z,29.60
2022-09-10T02:59:30.322Z,29.00
2022-09-10T03:01:59.297Z,27.80
2022-09-10T03:04:28.063Z,26.70
2022-09-10T03:06:56.473Z,27.60
2022-09-10T03:09:28.334Z,27.20
2022-09-10T03:11:56.881Z,26.80
2022-09-10T03:14:25.381Z,28.50
2022-09-10T03:16:54.674Z,28.20
2022-09-10T03:19:26.065Z,28.50
2022-09-10T03:21:54.420Z,28.40
2022-09-10T03:24:24.612Z,28.30
2022-09-10T03:26:53.203Z,27.20
2022-09-10T03:29:23.324Z,27.20
2022-09-10T03:31:51.984Z,27.40
2022-09-10T03:34:21.395Z,27.30
2022-09-10T03:36:50.857Z,27.50
2022-09-10T03:39:19.258Z,28.00
2022-09-10T03:41:47.803Z,27.90
2022-09-10T03:44:16.729Z,26.70
2022-09-10T03:46:48.011Z,26.30
2022-09-10T03:49:18.127Z,26.00
2022-09-10T03:51:47.892Z,25.00
2022-09-10T03:54:17.182Z,25.60
2022-09-10T03:56:45.924Z,26.60
2022-09-10T03:59:14.381Z,22.90
2022-09-10T04:01:44.640Z,26.10
2022-09-10T04:04:14.335Z,24.80
2022-09-10T04:06:43.956Z,25.20
2022-09-10T04:09:12.515Z,24.50
2022-09-10T04:11:41.762Z,25.30
2022-09-10T04:14:10.453Z,24.80
2022-09-10T04:16:41.426Z,26.50
2022-09-10T04:19:12.535Z,29.80
2022-09-10T04:21:41.450Z,28.30
2022-09-10T04:24:12.121Z,30.60
2022-09-10T04:26:40.582Z,32.20
2022-09-10T04:29:09.001Z,29.20
2022-09-10T04:31:38.262Z,29.80
2022-09-10T04:34:12.303Z,29.30
2022-09-10T04:36:41.068Z,31.00
2022-09-10T04:39:10.416Z,32.00
2022-09-10T04:41:39.706Z,31.70
2022-09-10T04:44:09.283Z,29.70
2022-09-10T04:46:38.129Z,31.30
2022-09-10T04:49:10.770Z,30.50
2022-09-10T04:51:39.378Z,31.20
2022-09-10T04:54:08.219Z,31.40
2022-09-10T04:56:38.664Z,30.80
2022-09-10T04:59:07.270Z,31.30
2022-09-10T05:01:38.415Z,32.70
2022-09-10T05:04:07.539Z,32.70
2022-09-10T05:06:38.349Z,31.50
2022-09-10T05:09:09.151Z,32.70
2022-09-10T05:11:37.602Z,32.10
2022-09-10T05:14:07.077Z,30.70
2022-09-10T05:16:36.746Z,30.80
2022-09-10T05:19:05.683Z,32.50
2022-09-10T05:21:37.999Z,30.80
2022-09-10T05:24:07.305Z,31.00
2022-09-10T05:26:35.894Z,31.00
2022-09-10T05:29:04.571Z,29.60
2022-09-10T05:31:33.264Z,28.40
2022-09-10T05:34:01.921Z,27.90
2022-09-10T05:36:32.109Z,28.80
2022-09-10T05:39:02.637Z,30.20
2022-09-10T05:41:32.455Z,30.10
2022-09-10T05:44:02.459Z,28.30
2022-09-10T05:46:32.408Z,28.00
2022-09-10T05:49:07.985Z,27.90
2022-09-10T05:51:36.487Z,26.30
2022-09-10T05:54:06.001Z,27.50
2022-09-10T05:56:34.654Z,26.80
2022-09-10T05:59:03.826Z,27.10
2022-09-10T06:01:33.371Z,27.10
2022-09-10T06:04:04.090Z,25.90
2022-09-10T06:06:32.944Z,26.70
2022-09-10T06:09:09.009Z,27.30
2022-09-10T06:11:56.849Z,25.00
2022-09-10T06:14:25.840Z,28.20
2022-09-10T06:16:55.235Z,26.40
2022-09-10T06:19:24.832Z,25.90
2022-09-10T06:21:53.318Z,27.20
2022-09-10T06:24:23.060Z,24.80
2022-09-10T06:26:53.884Z,24.60
2022-09-10T06:29:24.136Z,24.90
2022-09-10T06:31:52.993Z,25.70
2022-09-10T06:34:22.023Z,25.80
2022-09-10T06:36:50.935Z,25.60
2022-09-10T06:39:19.719Z,26.70
2022-09-10T06:41:54.941Z,27.10
2022-09-10T06:44:59.542Z,27.10
2022-09-10T06:48:34.753Z,26.00
2022-09-10T06:50:52.489Z,25.30
2022-09-10T06:53:21.895Z,26.70
2022-09-10T06:55:52.281Z,27.30
2022-09-10T06:58:23.937Z,29.70
2022-09-10T07:00:53.288Z,30.00
2022-09-10T07:03:23.549Z,28.80
2022-09-10T07:05:55.048Z,25.60
2022-09-10T07:08:26.553Z,27.00
2022-09-10T07:11:00.847Z,26.60
2022-09-10T07:13:29.331Z,27.60
2022-09-10T07:15:57.936Z,27.30
2022-09-10T07:18:28.149Z,27.10
2022-09-10T07:21:07.680Z,27.70
2022-09-10T07:23:36.103Z,28.30
2022-09-10T07:26:54.498Z,27.30
2022-09-10T07:29:23.418Z,27.20
2022-09-10T07:31:53.508Z,29.30
2022-09-10T07:34:24.934Z,29.70
2022-09-10T07:36:56.306Z,28.90
2022-09-10T07:39:26.317Z,28.00
2022-09-10T07:41:57.370Z,30.40
2022-09-10T07:44:29.257Z,30.30
2022-09-10T07:47:02.829Z,38.90
2022-09-10T07:49:32.010Z,39.20
2022-09-10T07:52:00.714Z,51.00
2022-09-10T07:54:37.513Z,37.90
2022-09-10T07:57:06.492Z,37.60
2022-09-10T07:59:36.605Z,32.80
2022-09-10T08:02:06.017Z,33.70
2022-09-10T08:04:37.137Z,32.70
2022-09-10T08:07:08.566Z,30.60
2022-09-10T08:09:38.862Z,30.10
2022-09-10T08:12:09.375Z,30.50
2022-09-10T08:14:37.783Z,33.60
2022-09-10T08:17:07.193Z,40.60
2022-09-10T08:19:39.697Z,32.40
2022-09-10T08:22:12.809Z,30.60
2022-09-10T08:24:47.287Z,32.40
2022-09-10T08:27:16.836Z,29.80
2022-09-10T08:29:45.666Z,30.90
2022-09-10T08:32:15.269Z,29.90
2022-09-10T08:34:43.889Z,28.50
2022-09-10T08:37:13.982Z,30.90
2022-09-10T08:39:42.641Z,34.80
2022-09-10T08:42:19.159Z,33.00
2022-09-10T08:44:53.442Z,30.60
2022-09-10T08:47:32.864Z,30.90
2022-09-10T08:50:13.091Z,29.90
2022-09-10T08:52:48.352Z,33.00
2022-09-10T08:55:29.337Z,32.30
2022-09-10T08:58:03.314Z,33.90
2022-09-10T09:00:37.381Z,30.60
2022-09-10T09:03:16.580Z,29.70
2022-09-10T09:05:49.261Z,30.30
2022-09-10T09:08:21.495Z,30.40
2022-09-10T09:10:55.363Z,29.20
2022-09-10T09:13:45.140Z,28.00
2022-09-10T09:16:28.478Z,30.10
2022-09-10T09:19:09.969Z,30.70
2022-09-10T09:21:50.291Z,28.90
2022-09-10T09:24:24.243Z,29.20
2022-09-10T09:27:09.697Z,28.60
2022-09-10T09:29:48.060Z,29.50
2022-09-10T09:32:20.329Z,30.30
2022-09-10T09:34:52.035Z,28.80
2022-09-10T09:37:23.808Z,29.10
2022-09-10T09:40:03.566Z,30.60
2022-09-10T09:42:43.752Z,29.10
2022-09-10T09:45:23.606Z,29.70
2022-09-10T09:47:53.862Z,29.80
2022-09-10T09:50:22.588Z,29.90
2022-09-10T09:52:55.687Z,29.30
2022-09-10T09:55:32.912Z,29.20
2022-09-10T09:58:29.131Z,29.10
2022-09-10T10:01:12.446Z,28.80
2022-09-10T10:03:48.037Z,30.10
2022-09-10T10:06:19.012Z,30.10
2022-09-10T10:08:55.636Z,30.20
2022-09-10T10:11:40.370Z,31.10
2022-09-10T10:14:40.839Z,28.90
2022-09-10T10:17:29.732Z,29.60
2022-09-10T10:20:06.697Z,28.50
2022-09-10T10:22:36.422Z,28.50
2022-09-10T10:25:26.770Z,26.50
2022-09-10T10:27:55.933Z,24.30
2022-09-10T10:30:25.056Z,24.10
2022-09-10T10:32:55.745Z,23.00
2022-09-10T10:35:40.725Z,23.80
2022-09-10T10:38:31.568Z,22.40
2022-09-10T10:41:39.885Z,21.40
2022-09-10T10:44:33.489Z,19.90
2022-09-10T10:47:18.165Z,20.00
2022-09-10T10:49:56.861Z,20.30
2022-09-10T10:52:35.959Z,20.10
2022-09-10T10:56:06.469Z,19.90
2022-09-10T11:09:41.098Z,18.70
2022-09-10T11:12:18.013Z,17.80
2022-09-10T11:14:58.806Z,16.30
2022-09-10T11:17:39.909Z,16.10
2022-09-10T11:20:28.357Z,16.20
2022-09-10T11:23:14.847Z,15.20
2022-09-10T11:25:58.958Z,14.50
2022-09-10T11:28:37.495Z,14.60
2022-09-10T11:31:16.324Z,14.30
2022-09-10T11:33:59.243Z,12.20
2022-09-10T11:36:39.393Z,10.20
2022-09-10T11:39:19.604Z,10.20
2022-09-10T11:41:55.820Z,10.80
2022-09-10T11:44:42.750Z,11.70
2022-09-10T11:47:20.533Z,12.10
2022-09-10T11:50:01.245Z,12.20
2022-09-10T11:52:36.026Z,12.90
2022-09-10T11:55:14.785Z,12.60
2022-09-10T11:58:04.740Z,12.10
2022-09-10T12:00:49.376Z,11.50
2022-09-10T12:03:41.233Z,12.50
2022-09-10T12:06:22.367Z,11.80
2022-09-10T12:09:07.590Z,12.60
2022-09-10T12:11:51.365Z,12.30
2022-09-10T12:14:23.438Z,11.60
2022-09-10T12:16:59.392Z,13.40
2022-09-10T12:19:36.703Z,13.10
2022-09-10T12:22:18.338Z,14.20
2022-09-10T12:24:56.726Z,13.20
2022-09-10T12:27:47.221Z,13.20
2022-09-10T12:31:02.952Z,36.60
2022-09-10T12:34:16.452Z,197.70
2022-09-10T12:37:24.200Z,108.10
2022-09-10T12:40:32.173Z,54.40
2022-09-10T12:43:40.313Z,47.30
2022-09-10T12:46:24.470Z,37.50
2022-09-10T12:49:12.989Z,19.80
2022-09-10T12:51:58.641Z,15.50
2022-09-10T12:54:55.865Z,16.20
2022-09-10T12:57:38.536Z,13.60
2022-09-10T13:00:23.238Z,12.00
2022-09-10T13:02:59.242Z,14.30
2022-09-10T13:05:36.730Z,14.70
2022-09-10T13:08:20.553Z,13.50
2022-09-10T13:11:15.859Z,13.10
2022-09-10T13:13:54.822Z,12.00
2022-09-10T13:16:41.979Z,12.50
2022-09-10T13:19:50.045Z,14.70
2022-09-10T13:22:58.014Z,11.70
2022-09-10T13:25:44.679Z,11.20
2022-09-10T13:28:52.308Z,11.80
2022-09-10T13:31:28.594Z,11.50
2022-09-10T13:34:47.272Z,25.50
2022-09-10T13:37:37.357Z,12.50
2022-09-10T13:40:34.859Z,11.40
2022-09-10T13:43:19.167Z,36.10
2022-09-10T13:45:55.251Z,30.30
2022-09-10T13:48:30.851Z,31.80
2022-09-10T13:51:16.438Z,20.20
2022-09-10T13:53:50.129Z,18.50
2022-09-10T13:56:26.190Z,14.50
2022-09-10T13:59:02.183Z,13.10
2022-09-10T14:01:56.841Z,12.70
2022-09-10T14:04:31.962Z,14.80
2022-09-10T14:07:13.178Z,14.30
2022-09-10T14:09:47.106Z,15.30
2022-09-10T14:12:26.227Z,16.00
2022-09-10T14:15:01.541Z,16.30
2022-09-10T14:17:39.025Z,18.20
2022-09-10T14:20:23.610Z,19.00
2022-09-10T14:23:02.489Z,18.20
2022-09-10T14:25:36.915Z,18.00
2022-09-10T14:28:24.253Z,19.30
2022-09-10T14:31:21.657Z,20.90
2022-09-10T14:33:53.915Z,21.00
2022-09-10T14:36:34.826Z,19.20
2022-09-10T14:39:16.419Z,17.30
2022-09-10T14:41:49.465Z,17.90
2022-09-10T14:44:31.514Z,17.30
2022-09-10T14:47:14.581Z,18.60
2022-09-10T14:49:47.231Z,20.00
2022-09-10T14:52:20.207Z,23.30
2022-09-10T14:54:52.322Z,20.40
2022-09-10T14:57:24.337Z,21.30
2022-09-10T14:59:57.837Z,20.10
2022-09-10T15:02:30.949Z,18.30
2022-09-10T15:05:07.787Z,17.80
2022-09-10T15:07:43.058Z,21.20
2022-09-10T15:10:15.385Z,21.40
2022-09-10T15:12:52.185Z,21.60
2022-09-10T15:15:25.083Z,20.20
2022-09-10T15:17:57.966Z,20.00
2022-09-10T15:20:33.387Z,18.90
2022-09-10T15:23:05.287Z,16.90
2022-09-10T15:25:41.594Z,15.20
2022-09-10T15:28:13.639Z,15.80
2022-09-10T15:30:45.580Z,14.70
2022-09-10T15:33:17.982Z,14.60
2022-09-10T15:35:50.048Z,15.30
2022-09-10T15:38:22.258Z,17.10
2022-09-10T15:40:56.530Z,17.20
2022-09-10T15:43:28.549Z,17.90
2022-09-10T15:46:04.189Z,16.60
2022-09-10T15:48:36.891Z,16.10
2022-09-10T15:51:13.897Z,15.80
2022-09-10T15:53:49.009Z,16.70
2022-09-10T15:56:24.359Z,18.80
2022-09-10T15:58:57.988Z,19.60
2022-09-10T16:01:36.726Z,19.70
2022-09-10T16:04:09.908Z,21.60
2022-09-10T16:06:42.144Z,24.40
2022-09-10T16:09:15.367Z,22.10
2022-09-10T16:11:48.280Z,22.20
2022-09-10T16:14:20.893Z,20.90
2022-09-10T16:16:56.323Z,21.10
2022-09-10T16:19:29.569Z,21.40
2022-09-10T16:22:01.433Z,22.70
2022-09-10T16:24:33.533Z,21.90
2022-09-10T16:27:05.854Z,20.30
2022-09-10T16:29:40.091Z,20.30
2022-09-10T16:32:12.921Z,20.90
2022-09-10T16:34:45.082Z,20.30
2022-09-10T16:37:17.421Z,20.20
2022-09-10T16:39:49.337Z,20.30
2022-09-10T16:42:21.182Z,19.90
2022-09-10T16:44:52.969Z,19.20
2022-09-10T16:47:25.528Z,19.60
2022-09-10T16:49:57.401Z,18.90
2022-09-10T16:52:30.919Z,18.80
2022-09-10T16:55:04.834Z,21.00
2022-09-10T16:57:36.863Z,19.30
2022-09-10T17:00:11.083Z,18.60
2022-09-10T17:02:43.470Z,21.30
2022-09-10T17:05:15.674Z,24.30
2022-09-10T17:07:49.298Z,33.10
2022-09-10T17:10:23.513Z,32.60
2022-09-10T17:12:55.730Z,45.70
2022-09-10T17:15:30.206Z,107.00
2022-09-10T17:18:02.126Z,40.50
2022-09-10T17:20:35.672Z,100.00
2022-09-10T17:23:09.224Z,98.00
2022-09-10T17:25:41.172Z,39.90
2022-09-10T17:28:16.287Z,35.90
2022-09-10T17:30:50.986Z,28.90
2022-09-10T17:33:29.443Z,40.40
2022-09-10T17:36:03.573Z,32.50
2022-09-10T17:38:36.879Z,28.60
2022-09-10T17:41:14.628Z,37.30
2022-09-10T17:43:47.167Z,28.10
2022-09-10T17:46:23.482Z,24.70
2022-09-10T17:48:56.658Z,24.20
2022-09-10T17:51:30.913Z,26.10
2022-09-10T17:54:05.800Z,26.80
2022-09-10T17:56:43.652Z,25.80
2022-09-10T17:59:16.836Z,26.80
2022-09-10T18:01:52.493Z,25.20
2022-09-10T18:04:27.758Z,24.80
2022-09-10T18:07:01.273Z,24.20
2022-09-10T18:09:33.134Z,23.10
2022-09-10T18:12:05.877Z,23.60
2022-09-10T18:14:38.595Z,22.40
2022-09-10T18:17:10.546Z,25.30
2022-09-10T18:19:42.581Z,25.40
2022-09-10T18:22:14.928Z,24.30
2022-09-10T18:24:47.188Z,22.60
2022-09-10T18:27:18.963Z,22.60
2022-09-10T18:29:51.660Z,23.70
2022-09-10T18:32:26.208Z,27.00
2022-09-10T18:34:58.512Z,25.30
2022-09-10T18:37:31.353Z,29.60
2022-09-10T18:40:14.455Z,27.60
2022-09-10T18:42:51.328Z,26.20
2022-09-10T18:45:50.973Z,28.50
2022-09-10T18:48:33.106Z,27.60
2022-09-10T18:51:08.587Z,27.30
2022-09-10T18:53:45.885Z,24.00
2022-09-10T18:56:21.360Z,22.20
2022-09-10T18:58:55.778Z,22.00
2022-09-10T19:02:30.489Z,22.80
2022-09-10T19:06:08.250Z,21.30
2022-09-10T19:08:44.964Z,20.80
2022-09-10T19:11:19.042Z,25.10
2022-09-10T19:13:52.963Z,24.00
2022-09-10T19:16:27.903Z,22.30
2022-09-10T19:19:01.520Z,22.60
2022-09-10T19:21:36.782Z,24.10
2022-09-10T19:24:54.472Z,22.70
2022-09-10T19:27:41.316Z,21.20
2022-09-10T19:30:15.430Z,21.40
2022-09-10T19:32:47.394Z,22.80
2022-09-10T19:35:20.121Z,23.20
2022-09-10T19:38:36.764Z,22.90
2022-09-10T19:41:18.929Z,23.30
2022-09-10T19:43:52.522Z,23.90
2022-09-10T19:46:28.408Z,25.00
2022-09-10T19:49:01.539Z,23.70
2022-09-10T19:51:35.936Z,25.40
2022-09-10T19:54:12.050Z,24.80
2022-09-10T19:56:44.424Z,23.30
2022-09-10T19:59:16.287Z,26.60
2022-09-10T20:01:48.815Z,23.90
2022-09-10T20:04:20.748Z,25.00
2022-09-10T20:06:52.925Z,26.90
2022-09-10T20:09:24.741Z,24.90
2022-09-10T20:11:57.177Z,23.50
2022-09-10T20:14:29.359Z,24.80
2022-09-10T20:17:01.725Z,24.00
2022-09-10T20:19:33.590Z,23.00
2022-09-10T20:22:05.591Z,24.90
2022-09-10T20:24:37.913Z,24.20
2022-09-10T20:27:10.146Z,24.10
2022-09-10T20:29:43.347Z,23.50
2022-09-10T20:32:15.306Z,24.00
2022-09-10T20:34:47.434Z,23.70
2022-09-10T20:37:19.624Z,23.90
2022-09-10T20:39:51.952Z,23.40
2022-09-10T20:42:25.485Z,24.00
2022-09-10T20:44:57.535Z,24.90
2022-09-10T20:47:31.510Z,24.10
2022-09-10T20:50:03.304Z,24.40
2022-09-10T20:52:35.367Z,25.30
2022-09-10T20:55:08.786Z,24.70
2022-09-10T20:57:40.537Z,25.00
2022-09-10T21:00:15.247Z,26.20
2022-09-10T21:02:48.146Z,25.80
2022-09-10T21:05:21.089Z,26.20
2022-09-10T21:07:53.054Z,25.70
2022-09-10T21:10:24.876Z,26.50
2022-09-10T21:13:05.178Z,24.20
2022-09-10T21:15:38.119Z,25.50
2022-09-10T21:18:10.458Z,27.10
2022-09-10T21:20:42.430Z,26.50
2022-09-10T21:23:14.196Z,26.90
2022-09-10T21:25:53.639Z,26.40
2022-09-10T21:28:27.225Z,26.30
2022-09-10T21:31:05.158Z,26.60
2022-09-10T21:33:37.910Z,26.80
2022-09-10T21:36:12.401Z,28.00
2022-09-10T21:38:47.422Z,27.40
2022-09-10T21:41:24.339Z,26.70
2022-09-10T21:43:56.295Z,26.90
2022-09-10T21:46:29.529Z,26.00
2022-09-10T21:49:02.351Z,24.90
2022-09-10T21:51:34.500Z,27.30
2022-09-10T21:54:06.717Z,27.50
2022-09-10T21:56:38.463Z,26.90
2022-09-10T21:59:13.073Z,26.50
2022-09-10T22:01:46.875Z,26.60
2022-09-10T22:04:22.776Z,27.00
2022-09-10T22:06:56.725Z,26.60
2022-09-10T22:09:28.485Z,26.10
2022-09-10T22:12:00.325Z,26.50
2022-09-10T22:14:33.313Z,25.40
2022-09-10T22:17:05.562Z,25.10
2022-09-10T22:19:37.680Z,25.20
2022-09-10T22:22:11.290Z,24.80
2022-09-10T22:24:43.100Z,25.00
2022-09-10T22:27:14.984Z,24.90
2022-09-10T22:29:46.925Z,26.10
2022-09-10T22:32:19.633Z,28.00
2022-09-10T22:34:51.818Z,28.10
2022-09-10T22:37:23.551Z,26.40
2022-09-10T22:39:55.350Z,25.50
2022-09-10T22:42:27.321Z,26.10
2022-09-10T22:45:00.920Z,23.90
2022-09-10T22:47:33.053Z,24.20
2022-09-10T22:50:05.368Z,25.10
2022-09-10T22:52:38.363Z,26.30
2022-09-10T22:55:12.578Z,28.50
2022-09-10T22:57:45.291Z,28.80
2022-09-10T23:00:17.731Z,30.00
2022-09-10T23:02:49.593Z,31.30
2022-09-10T23:05:22.068Z,32.80
2022-09-10T23:07:53.904Z,34.10
2022-09-10T23:10:26.461Z,32.50
2022-09-10T23:12:59.446Z,32.80
2022-09-10T23:15:34.730Z,33.40
2022-09-10T23:18:06.655Z,32.40
2022-09-10T23:20:38.555Z,32.70
2022-09-10T23:23:10.580Z,33.40
2022-09-10T23:25:43.571Z,33.00
2022-09-10T23:28:15.421Z,30.90
2022-09-10T23:30:47.176Z,29.50
2022-09-10T23:33:19.352Z,28.20
2022-09-10T23:35:53.568Z,27.60
2022-09-10T23:38:26.060Z,26.70
2022-09-10T23:40:59.255Z,27.00
2022-09-10T23:43:31.466Z,25.80
2022-09-10T23:46:03.887Z,26.30
2022-09-10T23:48:36.035Z,25.70
2022-09-10T23:51:08.983Z,24.50
2022-09-10T23:53:41.013Z,23.80
2022-09-10T23:56:13.203Z,24.60
2022-09-10T23:58:45.255Z,24.50
